sensor_id;sensor_type;location;lat;lon;timestamp;P1;durP1;ratioP1;P2;durP2;ratioP2
9838;SDS011;4958;48.150;11.506;2023-05-27T00:02:17;7.57;;;6.38;;
9838;SDS011;4958;48.150;11.506;2023-05-27T00:04:43;7.35;;;6.55;;
9838;SDS011;4958;48.150;11.506;2023-05-27T00:07:10;8.18;;;6.88;;
9838;SDS011;4958;48.150;11.506;2023-05-27T00:09:36;8.32;;;7.07;;
9838;SDS011;4958;48.150;11.506;2023-05-27T00:12:04;11.23;;;9.15;;
9838;SDS011;4958;48.150;11.506;2023-05-27T00:14:31;7.95;;;7.05;;
9838;SDS011;4958;48.150;11.506;2023-05-27T00:16:57;8.10;;;7.30;;
9838;SDS011;4958;48.150;11.506;2023-05-27T00:19:24;10.75;;;9.40;;
9838;SDS011;4958;48.150;11.506;2023-05-27T00:21:50;22.67;;;16.55;;
9838;SDS011;4958;48.150;11.506;2023-05-27T00:24:19;35.50;;;19.98;;
9838;SDS011;4958;48.150;11.506;2023-05-27T00:26:46;14.15;;;11.40;;
9838;SDS011;4958;48.150;11.506;2023-05-27T00:29:15;8.40;;;7.47;;
9838;SDS011;4958;48.150;11.506;2023-05-27T00:31:42;8.20;;;7.40;;
9838;SDS011;4958;48.150;11.506;2023-05-27T00:34:08;10.18;;;7.20;;
9838;SDS011;4958;48.150;11.506;2023-05-27T00:36:35;7.32;;;6.63;;
9838;SDS011;4958;48.150;11.506;2023-05-27T00:39:03;9.02;;;7.47;;
9838;SDS011;4958;48.150;11.506;2023-05-27T00:41:30;9.68;;;7.78;;
9838;SDS011;4958;48.150;11.506;2023-05-27T00:43:57;9.50;;;7.32;;
9838;SDS011;4958;48.150;11.506;2023-05-27T00:46:25;8.30;;;7.50;;
9838;SDS011;4958;48.150;11.506;2023-05-27T00:48:51;9.57;;;7.80;;
9838;SDS011;4958;48.150;11.506;2023-05-27T00:51:18;9.35;;;7.25;;
9838;SDS011;4958;48.150;11.506;2023-05-27T00:53:44;9.80;;;7.30;;
9838;SDS011;4958;48.150;11.506;2023-05-27T00:56:13;7.93;;;7.22;;
9838;SDS011;4958;48.150;11.506;2023-05-27T00:58:40;7.80;;;7.07;;
9838;SDS011;4958;48.150;11.506;2023-05-27T01:01:08;8.60;;;7.68;;
9838;SDS011;4958;48.150;11.506;2023-05-27T01:03:38;9.50;;;7.45;;
9838;SDS011;4958;48.150;11.506;2023-05-27T01:06:08;7.63;;;6.82;;
9838;SDS011;4958;48.150;11.506;2023-05-27T01:08:42;8.30;;;7.50;;
9838;SDS011;4958;48.150;11.506;2023-05-27T01:11:15;11.85;;;7.35;;
9838;SDS011;4958;48.150;11.506;2023-05-27T01:13:49;8.13;;;7.32;;
9838;SDS011;4958;48.150;11.506;2023-05-27T01:16:20;7.95;;;7.15;;
9838;SDS011;4958;48.150;11.506;2023-05-27T01:18:48;7.55;;;6.72;;
9838;SDS011;4958;48.150;11.506;2023-05-27T01:21:17;8.45;;;7.15;;
9838;SDS011;4958;48.150;11.506;2023-05-27T01:23:48;8.32;;;6.75;;
9838;SDS011;4958;48.150;11.506;2023-05-27T01:26:16;7.53;;;6.72;;
9838;SDS011;4958;48.150;11.506;2023-05-27T01:28:45;8.20;;;7.40;;
9838;SDS011;4958;48.150;11.506;2023-05-27T01:31:13;8.75;;;7.95;;
9838;SDS011;4958;48.150;11.506;2023-05-27T01:33:44;9.18;;;7.57;;
9838;SDS011;4958;48.150;11.506;2023-05-27T01:36:17;10.35;;;8.07;;
9838;SDS011;4958;48.150;11.506;2023-05-27T01:38:50;8.60;;;7.57;;
9838;SDS011;4958;48.150;11.506;2023-05-27T01:41:18;8.50;;;7.70;;
9838;SDS011;4958;48.150;11.506;2023-05-27T01:43:46;9.23;;;7.60;;
9838;SDS011;4958;48.150;11.506;2023-05-27T01:46:13;9.10;;;7.88;;
9838;SDS011;4958;48.150;11.506;2023-05-27T01:48:40;9.68;;;7.78;;
9838;SDS011;4958;48.150;11.506;2023-05-27T01:51:07;8.85;;;7.00;;
9838;SDS011;4958;48.150;11.506;2023-05-27T01:53:36;8.93;;;8.00;;
9838;SDS011;4958;48.150;11.506;2023-05-27T01:56:04;9.02;;;7.57;;
9838;SDS011;4958;48.150;11.506;2023-05-27T01:58:30;8.38;;;7.50;;
9838;SDS011;4958;48.150;11.506;2023-05-27T02:00:57;8.82;;;7.80;;
9838;SDS011;4958;48.150;11.506;2023-05-27T02:03:23;8.80;;;7.70;;
9838;SDS011;4958;48.150;11.506;2023-05-27T02:05:52;9.32;;;7.40;;
9838;SDS011;4958;48.150;11.506;2023-05-27T02:08:18;8.57;;;7.53;;
9838;SDS011;4958;48.150;11.506;2023-05-27T02:10:44;8.75;;;7.53;;
9838;SDS011;4958;48.150;11.506;2023-05-27T02:13:12;8.63;;;7.38;;
9838;SDS011;4958;48.150;11.506;2023-05-27T02:15:39;9.70;;;7.53;;
9838;SDS011;4958;48.150;11.506;2023-05-27T02:18:06;10.82;;;7.47;;
9838;SDS011;4958;48.150;11.506;2023-05-27T02:20:38;8.60;;;7.60;;
9838;SDS011;4958;48.150;11.506;2023-05-27T02:23:05;8.73;;;7.82;;
9838;SDS011;4958;48.150;11.506;2023-05-27T02:25:33;9.90;;;8.23;;
9838;SDS011;4958;48.150;11.506;2023-05-27T02:27:59;8.68;;;7.63;;
9838;SDS011;4958;48.150;11.506;2023-05-27T02:30:29;7.95;;;7.03;;
9838;SDS011;4958;48.150;11.506;2023-05-27T02:32:56;7.95;;;7.15;;
9838;SDS011;4958;48.150;11.506;2023-05-27T02:35:22;8.27;;;7.40;;
9838;SDS011;4958;48.150;11.506;2023-05-27T02:37:49;9.50;;;7.57;;
9838;SDS011;4958;48.150;11.506;2023-05-27T02:40:22;9.07;;;7.40;;
9838;SDS011;4958;48.150;11.506;2023-05-27T02:42:49;9.00;;;8.10;;
9838;SDS011;4958;48.150;11.506;2023-05-27T02:45:16;8.43;;;7.38;;
9838;SDS011;4958;48.150;11.506;2023-05-27T02:47:44;8.10;;;7.30;;
9838;SDS011;4958;48.150;11.506;2023-05-27T02:50:11;8.02;;;7.22;;
9838;SDS011;4958;48.150;11.506;2023-05-27T02:52:37;8.55;;;7.70;;
9838;SDS011;4958;48.150;11.506;2023-05-27T02:55:05;10.77;;;7.15;;
9838;SDS011;4958;48.150;11.506;2023-05-27T02:57:32;11.35;;;7.78;;
9838;SDS011;4958;48.150;11.506;2023-05-27T02:59:58;14.18;;;7.72;;
9838;SDS011;4958;48.150;11.506;2023-05-27T03:02:25;8.85;;;7.95;;
9838;SDS011;4958;48.150;11.506;2023-05-27T03:04:56;8.32;;;7.50;;
9838;SDS011;4958;48.150;11.506;2023-05-27T03:07:23;8.27;;;7.20;;
9838;SDS011;4958;48.150;11.506;2023-05-27T03:13:26;8.60;;;7.70;;
9838;SDS011;4958;48.150;11.506;2023-05-27T03:15:52;8.75;;;7.63;;
9838;SDS011;4958;48.150;11.506;2023-05-27T03:18:20;10.80;;;7.68;;
9838;SDS011;4958;48.150;11.506;2023-05-27T03:20:49;9.02;;;7.18;;
9838;SDS011;4958;48.150;11.506;2023-05-27T03:23:16;9.40;;;7.63;;
9838;SDS011;4958;48.150;11.506;2023-05-27T03:25:42;9.57;;;8.13;;
9838;SDS011;4958;48.150;11.506;2023-05-27T03:28:09;8.40;;;7.35;;
9838;SDS011;4958;48.150;11.506;2023-05-27T03:30:35;7.80;;;7.10;;
9838;SDS011;4958;48.150;11.506;2023-05-27T03:33:03;9.40;;;8.30;;
9838;SDS011;4958;48.150;11.506;2023-05-27T03:35:29;7.85;;;7.10;;
9838;SDS011;4958;48.150;11.506;2023-05-27T03:37:57;9.38;;;7.72;;
9838;SDS011;4958;48.150;11.506;2023-05-27T03:40:24;8.63;;;7.82;;
9838;SDS011;4958;48.150;11.506;2023-05-27T03:42:50;8.57;;;7.68;;
9838;SDS011;4958;48.150;11.506;2023-05-27T03:45:17;9.02;;;7.53;;
9838;SDS011;4958;48.150;11.506;2023-05-27T03:47:44;11.05;;;7.95;;
9838;SDS011;4958;48.150;11.506;2023-05-27T03:50:10;8.68;;;7.82;;
9838;SDS011;4958;48.150;11.506;2023-05-27T03:52:37;8.10;;;7.32;;
9838;SDS011;4958;48.150;11.506;2023-05-27T03:55:08;7.97;;;7.05;;
9838;SDS011;4958;48.150;11.506;2023-05-27T03:57:35;7.97;;;7.18;;
9838;SDS011;4958;48.150;11.506;2023-05-27T04:00:02;8.18;;;7.38;;
9838;SDS011;4958;48.150;11.506;2023-05-27T04:02:31;7.93;;;7.03;;
9838;SDS011;4958;48.150;11.506;2023-05-27T04:04:57;9.27;;;7.35;;
9838;SDS011;4958;48.150;11.506;2023-05-27T04:07:24;9.25;;;7.43;;
9838;SDS011;4958;48.150;11.506;2023-05-27T04:09:52;8.52;;;7.57;;
9838;SDS011;4958;48.150;11.506;2023-05-27T04:12:20;10.57;;;7.18;;
9838;SDS011;4958;48.150;11.506;2023-05-27T04:14:46;12.23;;;7.43;;
9838;SDS011;4958;48.150;11.506;2023-05-27T04:17:13;8.57;;;7.70;;
9838;SDS011;4958;48.150;11.506;2023-05-27T04:19:39;8.48;;;7.43;;
9838;SDS011;4958;48.150;11.506;2023-05-27T04:22:06;10.20;;;7.00;;
9838;SDS011;4958;48.150;11.506;2023-05-27T04:24:34;8.18;;;6.78;;
9838;SDS011;4958;48.150;11.506;2023-05-27T04:27:00;15.52;;;7.13;;
9838;SDS011;4958;48.150;11.506;2023-05-27T04:29:28;11.10;;;7.10;;
9838;SDS011;4958;48.150;11.506;2023-05-27T04:31:56;8.25;;;6.80;;
9838;SDS011;4958;48.150;11.506;2023-05-27T04:34:23;8.55;;;7.65;;
9838;SDS011;4958;48.150;11.506;2023-05-27T04:36:51;10.60;;;7.20;;
9838;SDS011;4958;48.150;11.506;2023-05-27T04:39:20;7.80;;;7.07;;
9838;SDS011;4958;48.150;11.506;2023-05-27T04:41:47;8.25;;;6.68;;
9838;SDS011;4958;48.150;11.506;2023-05-27T04:44:13;8.05;;;7.03;;
9838;SDS011;4958;48.150;11.506;2023-05-27T04:46:41;10.88;;;7.20;;
9838;SDS011;4958;48.150;11.506;2023-05-27T04:49:08;8.10;;;6.90;;
9838;SDS011;4958;48.150;11.506;2023-05-27T04:51:35;7.50;;;6.65;;
9838;SDS011;4958;48.150;11.506;2023-05-27T04:54:02;8.63;;;6.43;;
9838;SDS011;4958;48.150;11.506;2023-05-27T04:56:28;8.20;;;6.90;;
9838;SDS011;4958;48.150;11.506;2023-05-27T04:58:55;8.82;;;6.60;;
9838;SDS011;4958;48.150;11.506;2023-05-27T05:01:21;7.75;;;6.60;;
9838;SDS011;4958;48.150;11.506;2023-05-27T05:03:51;7.65;;;6.85;;
9838;SDS011;4958;48.150;11.506;2023-05-27T05:06:27;7.25;;;6.22;;
9838;SDS011;4958;48.150;11.506;2023-05-27T05:08:54;7.55;;;6.60;;
9838;SDS011;4958;48.150;11.506;2023-05-27T05:11:21;8.52;;;6.68;;
9838;SDS011;4958;48.150;11.506;2023-05-27T05:13:48;15.10;;;6.40;;
9838;SDS011;4958;48.150;11.506;2023-05-27T05:16:14;8.85;;;6.20;;
9838;SDS011;4958;48.150;11.506;2023-05-27T05:18:43;8.35;;;6.43;;
9838;SDS011;4958;48.150;11.506;2023-05-27T05:21:11;9.00;;;6.45;;
9838;SDS011;4958;48.150;11.506;2023-05-27T05:23:38;8.75;;;6.40;;
9838;SDS011;4958;48.150;11.506;2023-05-27T05:26:05;8.10;;;6.50;;
9838;SDS011;4958;48.150;11.506;2023-05-27T05:28:32;7.47;;;5.90;;
9838;SDS011;4958;48.150;11.506;2023-05-27T05:30:59;8.00;;;6.32;;
9838;SDS011;4958;48.150;11.506;2023-05-27T05:33:26;11.45;;;6.88;;
9838;SDS011;4958;48.150;11.506;2023-05-27T05:35:52;7.60;;;6.00;;
9838;SDS011;4958;48.150;11.506;2023-05-27T05:38:20;6.78;;;6.05;;
9838;SDS011;4958;48.150;11.506;2023-05-27T05:40:48;7.90;;;5.95;;
9838;SDS011;4958;48.150;11.506;2023-05-27T05:43:17;7.90;;;5.97;;
9838;SDS011;4958;48.150;11.506;2023-05-27T05:45:44;8.25;;;6.32;;
9838;SDS011;4958;48.150;11.506;2023-05-27T05:48:10;9.45;;;5.85;;
9838;SDS011;4958;48.150;11.506;2023-05-27T05:50:36;9.27;;;6.10;;
9838;SDS011;4958;48.150;11.506;2023-05-27T05:53:03;7.88;;;5.80;;
9838;SDS011;4958;48.150;11.506;2023-05-27T05:55:31;7.32;;;6.03;;
9838;SDS011;4958;48.150;11.506;2023-05-27T05:57:57;6.95;;;5.70;;
9838;SDS011;4958;48.150;11.506;2023-05-27T06:00:24;8.30;;;5.70;;
9838;SDS011;4958;48.150;11.506;2023-05-27T06:02:52;9.57;;;5.95;;
9838;SDS011;4958;48.150;11.506;2023-05-27T06:05:18;9.10;;;6.03;;
9838;SDS011;4958;48.150;11.506;2023-05-27T06:07:45;6.45;;;5.07;;
9838;SDS011;4958;48.150;11.506;2023-05-27T06:10:12;7.57;;;5.57;;
9838;SDS011;4958;48.150;11.506;2023-05-27T06:12:40;7.07;;;5.28;;
9838;SDS011;4958;48.150;11.506;2023-05-27T06:15:07;6.53;;;5.65;;
9838;SDS011;4958;48.150;11.506;2023-05-27T06:17:34;8.95;;;5.60;;
9838;SDS011;4958;48.150;11.506;2023-05-27T06:20:01;8.30;;;5.80;;
9838;SDS011;4958;48.150;11.506;2023-05-27T06:22:27;8.93;;;5.38;;
9838;SDS011;4958;48.150;11.506;2023-05-27T06:24:54;7.20;;;5.63;;
9838;SDS011;4958;48.150;11.506;2023-05-27T06:27:22;11.93;;;5.90;;
9838;SDS011;4958;48.150;11.506;2023-05-27T06:29:50;8.73;;;6.03;;
9838;SDS011;4958;48.150;11.506;2023-05-27T06:32:17;7.45;;;5.95;;
9838;SDS011;4958;48.150;11.506;2023-05-27T06:34:43;9.32;;;6.00;;
9838;SDS011;4958;48.150;11.506;2023-05-27T06:37:11;10.10;;;5.30;;
9838;SDS011;4958;48.150;11.506;2023-05-27T06:39:37;8.13;;;5.30;;
9838;SDS011;4958;48.150;11.506;2023-05-27T06:42:05;9.30;;;5.40;;
9838;SDS011;4958;48.150;11.506;2023-05-27T06:44:31;9.52;;;5.65;;
9838;SDS011;4958;48.150;11.506;2023-05-27T06:46:59;8.50;;;5.03;;
9838;SDS011;4958;48.150;11.506;2023-05-27T06:49:26;8.07;;;5.20;;
9838;SDS011;4958;48.150;11.506;2023-05-27T06:51:53;7.63;;;5.32;;
9838;SDS011;4958;48.150;11.506;2023-05-27T06:54:20;6.38;;;5.05;;
9838;SDS011;4958;48.150;11.506;2023-05-27T06:56:46;7.28;;;5.15;;
9838;SDS011;4958;48.150;11.506;2023-05-27T06:59:13;7.78;;;5.40;;
9838;SDS011;4958;48.150;11.506;2023-05-27T07:01:41;8.02;;;5.38;;
9838;SDS011;4958;48.150;11.506;2023-05-27T07:04:10;8.80;;;5.30;;
9838;SDS011;4958;48.150;11.506;2023-05-27T07:06:36;6.20;;;4.97;;
9838;SDS011;4958;48.150;11.506;2023-05-27T07:09:03;8.32;;;5.53;;
9838;SDS011;4958;48.150;11.506;2023-05-27T07:11:31;6.68;;;5.07;;
9838;SDS011;4958;48.150;11.506;2023-05-27T07:13:57;8.65;;;6.00;;
9838;SDS011;4958;48.150;11.506;2023-05-27T07:16:24;7.80;;;4.90;;
9838;SDS011;4958;48.150;11.506;2023-05-27T07:18:50;7.25;;;4.50;;
9838;SDS011;4958;48.150;11.506;2023-05-27T07:21:19;7.28;;;4.57;;
9838;SDS011;4958;48.150;11.506;2023-05-27T07:23:45;7.25;;;4.35;;
9838;SDS011;4958;48.150;11.506;2023-05-27T07:26:11;6.18;;;4.28;;
9838;SDS011;4958;48.150;11.506;2023-05-27T07:28:38;8.10;;;4.90;;
9838;SDS011;4958;48.150;11.506;2023-05-27T07:31:04;8.30;;;4.43;;
9838;SDS011;4958;48.150;11.506;2023-05-27T07:33:31;7.07;;;4.50;;
9838;SDS011;4958;48.150;11.506;2023-05-27T07:35:58;10.70;;;5.18;;
9838;SDS011;4958;48.150;11.506;2023-05-27T07:38:26;10.65;;;5.22;;
9838;SDS011;4958;48.150;11.506;2023-05-27T07:40:52;7.80;;;5.30;;
9838;SDS011;4958;48.150;11.506;2023-05-27T07:43:18;6.50;;;4.63;;
9838;SDS011;4958;48.150;11.506;2023-05-27T07:45:45;8.90;;;4.95;;
9838;SDS011;4958;48.150;11.506;2023-05-27T07:48:11;7.38;;;5.10;;
9838;SDS011;4958;48.150;11.506;2023-05-27T07:50:40;7.50;;;4.75;;
9838;SDS011;4958;48.150;11.506;2023-05-27T07:53:06;8.57;;;4.90;;
9838;SDS011;4958;48.150;11.506;2023-05-27T07:55:34;8.95;;;4.97;;
9838;SDS011;4958;48.150;11.506;2023-05-27T07:58:00;6.90;;;4.72;;
9838;SDS011;4958;48.150;11.506;2023-05-27T08:00:28;9.73;;;4.90;;
9838;SDS011;4958;48.150;11.506;2023-05-27T08:02:55;7.05;;;4.85;;
9838;SDS011;4958;48.150;11.506;2023-05-27T08:05:21;8.63;;;5.28;;
9838;SDS011;4958;48.150;11.506;2023-05-27T08:07:48;10.18;;;5.28;;
9838;SDS011;4958;48.150;11.506;2023-05-27T08:10:14;8.10;;;4.93;;
9838;SDS011;4958;48.150;11.506;2023-05-27T08:12:42;10.10;;;5.53;;
9838;SDS011;4958;48.150;11.506;2023-05-27T08:15:09;8.10;;;5.60;;
9838;SDS011;4958;48.150;11.506;2023-05-27T08:17:35;8.38;;;5.13;;
9838;SDS011;4958;48.150;11.506;2023-05-27T08:20:02;10.27;;;6.28;;
9838;SDS011;4958;48.150;11.506;2023-05-27T08:22:30;7.95;;;5.00;;
9838;SDS011;4958;48.150;11.506;2023-05-27T08:24:57;7.07;;;5.03;;
9838;SDS011;4958;48.150;11.506;2023-05-27T08:30:12;8.57;;;5.35;;
9838;SDS011;4958;48.150;11.506;2023-05-27T08:32:39;8.63;;;6.45;;
9838;SDS011;4958;48.150;11.506;2023-05-27T08:35:06;8.98;;;5.10;;
9838;SDS011;4958;48.150;11.506;2023-05-27T08:37:33;9.75;;;5.55;;
9838;SDS011;4958;48.150;11.506;2023-05-27T08:40:00;12.80;;;7.35;;
9838;SDS011;4958;48.150;11.506;2023-05-27T08:42:28;16.00;;;8.55;;
9838;SDS011;4958;48.150;11.506;2023-05-27T08:44:58;7.80;;;5.35;;
9838;SDS011;4958;48.150;11.506;2023-05-27T08:47:25;30.30;;;14.38;;
9838;SDS011;4958;48.150;11.506;2023-05-27T08:49:52;9.18;;;5.90;;
9838;SDS011;4958;48.150;11.506;2023-05-27T08:52:18;13.13;;;7.00;;
9838;SDS011;4958;48.150;11.506;2023-05-27T08:54:46;7.28;;;5.63;;
9838;SDS011;4958;48.150;11.506;2023-05-27T08:57:13;10.75;;;5.78;;
9838;SDS011;4958;48.150;11.506;2023-05-27T08:59:47;9.20;;;5.90;;
9838;SDS011;4958;48.150;11.506;2023-05-27T09:02:16;10.13;;;5.55;;
9838;SDS011;4958;48.150;11.506;2023-05-27T09:04:45;8.32;;;5.30;;
9838;SDS011;4958;48.150;11.506;2023-05-27T09:07:13;8.55;;;6.18;;
9838;SDS011;4958;48.150;11.506;2023-05-27T09:09:40;15.00;;;12.80;;
9838;SDS011;4958;48.150;11.506;2023-05-27T09:12:06;15.48;;;11.27;;
9838;SDS011;4958;48.150;11.506;2023-05-27T09:14:34;7.32;;;5.53;;
9838;SDS011;4958;48.150;11.506;2023-05-27T09:17:04;7.47;;;5.30;;
9838;SDS011;4958;48.150;11.506;2023-05-27T09:19:34;8.05;;;5.40;;
9838;SDS011;4958;48.150;11.506;2023-05-27T09:22:01;9.95;;;5.68;;
9838;SDS011;4958;48.150;11.506;2023-05-27T09:24:28;7.30;;;5.35;;
9838;SDS011;4958;48.150;11.506;2023-05-27T09:26:57;6.43;;;4.95;;
9838;SDS011;4958;48.150;11.506;2023-05-27T09:29:24;8.05;;;4.82;;
9838;SDS011;4958;48.150;11.506;2023-05-27T09:31:53;9.43;;;5.47;;
9838;SDS011;4958;48.150;11.506;2023-05-27T09:34:20;7.93;;;5.57;;
9838;SDS011;4958;48.150;11.506;2023-05-27T09:36:49;7.18;;;5.30;;
9838;SDS011;4958;48.150;11.506;2023-05-27T09:52:47;8.15;;;5.28;;
9838;SDS011;4958;48.150;11.506;2023-05-27T10:02:09;7.90;;;5.55;;
9838;SDS011;4958;48.150;11.506;2023-05-27T10:04:41;8.32;;;4.80;;
9838;SDS011;4958;48.150;11.506;2023-05-27T10:07:08;7.45;;;5.32;;
9838;SDS011;4958;48.150;11.506;2023-05-27T10:09:37;9.50;;;6.00;;
9838;SDS011;4958;48.150;11.506;2023-05-27T10:12:03;6.78;;;5.40;;
9838;SDS011;4958;48.150;11.506;2023-05-27T10:14:32;7.72;;;5.10;;
9838;SDS011;4958;48.150;11.506;2023-05-27T10:16:59;6.13;;;4.55;;
9838;SDS011;4958;48.150;11.506;2023-05-27T10:19:26;8.65;;;5.40;;
9838;SDS011;4958;48.150;11.506;2023-05-27T10:21:53;8.90;;;5.82;;
9838;SDS011;4958;48.150;11.506;2023-05-27T10:24:19;6.03;;;4.93;;
9838;SDS011;4958;48.150;11.506;2023-05-27T10:27:01;8.70;;;6.10;;
9838;SDS011;4958;48.150;11.506;2023-05-27T10:29:34;8.18;;;6.50;;
9838;SDS011;4958;48.150;11.506;2023-05-27T10:32:02;7.53;;;5.03;;
9838;SDS011;4958;48.150;11.506;2023-05-27T10:34:33;7.93;;;5.18;;
9838;SDS011;4958;48.150;11.506;2023-05-27T10:37:00;7.78;;;5.38;;
9838;SDS011;4958;48.150;11.506;2023-05-27T10:39:27;7.30;;;5.40;;
9838;SDS011;4958;48.150;11.506;2023-05-27T10:41:54;8.20;;;5.20;;
9838;SDS011;4958;48.150;11.506;2023-05-27T10:44:27;7.07;;;4.97;;
9838;SDS011;4958;48.150;11.506;2023-05-27T10:46:59;6.85;;;5.03;;
9838;SDS011;4958;48.150;11.506;2023-05-27T10:49:33;9.07;;;5.68;;
9838;SDS011;4958;48.150;11.506;2023-05-27T10:52:06;8.98;;;5.53;;
9838;SDS011;4958;48.150;11.506;2023-05-27T10:54:35;7.55;;;5.60;;
9838;SDS011;4958;48.150;11.506;2023-05-27T10:57:02;7.88;;;4.95;;
9838;SDS011;4958;48.150;11.506;2023-05-27T10:59:44;6.25;;;4.80;;
9838;SDS011;4958;48.150;11.506;2023-05-27T11:02:14;6.00;;;4.70;;
9838;SDS011;4958;48.150;11.506;2023-05-27T11:04:41;8.98;;;5.00;;
9838;SDS011;4958;48.150;11.506;2023-05-27T11:07:07;5.68;;;5.10;;
9838;SDS011;4958;48.150;11.506;2023-05-27T11:09:42;8.48;;;4.78;;
9838;SDS011;4958;48.150;11.506;2023-05-27T11:12:12;5.95;;;4.70;;
9838;SDS011;4958;48.150;11.506;2023-05-27T11:14:42;6.57;;;5.35;;
9838;SDS011;4958;48.150;11.506;2023-05-27T11:17:09;6.05;;;4.93;;
9838;SDS011;4958;48.150;11.506;2023-05-27T11:19:40;5.75;;;4.75;;
9838;SDS011;4958;48.150;11.506;2023-05-27T11:22:10;8.38;;;4.90;;
9838;SDS011;4958;48.150;11.506;2023-05-27T11:24:38;8.00;;;5.10;;
9838;SDS011;4958;48.150;11.506;2023-05-27T11:27:08;7.45;;;5.00;;
9838;SDS011;4958;48.150;11.506;2023-05-27T11:29:35;7.35;;;4.78;;
9838;SDS011;4958;48.150;11.506;2023-05-27T11:32:04;10.23;;;5.38;;
9838;SDS011;4958;48.150;11.506;2023-05-27T11:34:33;13.20;;;11.80;;
9838;SDS011;4958;48.150;11.506;2023-05-27T11:37:00;6.93;;;5.30;;
9838;SDS011;4958;48.150;11.506;2023-05-27T11:39:29;8.75;;;5.47;;
9838;SDS011;4958;48.150;11.506;2023-05-27T11:41:56;6.82;;;5.18;;
9838;SDS011;4958;48.150;11.506;2023-05-27T11:44:24;6.40;;;5.20;;
9838;SDS011;4958;48.150;11.506;2023-05-27T11:46:51;6.40;;;4.97;;
9838;SDS011;4958;48.150;11.506;2023-05-27T11:49:25;7.25;;;4.88;;
9838;SDS011;4958;48.150;11.506;2023-05-27T11:51:54;6.25;;;5.00;;
9838;SDS011;4958;48.150;11.506;2023-05-27T11:54:22;9.25;;;8.32;;
9838;SDS011;4958;48.150;11.506;2023-05-27T11:56:50;17.23;;;15.40;;
9838;SDS011;4958;48.150;11.506;2023-05-27T11:59:18;6.80;;;5.63;;
9838;SDS011;4958;48.150;11.506;2023-05-27T12:01:45;8.38;;;4.70;;
9838;SDS011;4958;48.150;11.506;2023-05-27T12:04:12;6.88;;;5.13;;
9838;SDS011;4958;48.150;11.506;2023-05-27T12:06:40;6.57;;;4.55;;
9838;SDS011;4958;48.150;11.506;2023-05-27T12:09:08;6.25;;;4.43;;
9838;SDS011;4958;48.150;11.506;2023-05-27T12:11:35;5.63;;;4.78;;
9838;SDS011;4958;48.150;11.506;2023-05-27T12:14:03;6.35;;;4.07;;
9838;SDS011;4958;48.150;11.506;2023-05-27T12:16:29;7.45;;;4.70;;
9838;SDS011;4958;48.150;11.506;2023-05-27T12:18:56;6.60;;;3.90;;
9838;SDS011;4958;48.150;11.506;2023-05-27T12:21:23;5.18;;;4.40;;
9838;SDS011;4958;48.150;11.506;2023-05-27T12:23:51;6.85;;;4.45;;
9838;SDS011;4958;48.150;11.506;2023-05-27T12:26:18;6.90;;;4.25;;
9838;SDS011;4958;48.150;11.506;2023-05-27T12:28:45;6.78;;;4.63;;
9838;SDS011;4958;48.150;11.506;2023-05-27T12:31:11;5.22;;;4.00;;
9838;SDS011;4958;48.150;11.506;2023-05-27T12:33:38;7.20;;;4.38;;
9838;SDS011;4958;48.150;11.506;2023-05-27T12:36:04;5.55;;;4.10;;
9838;SDS011;4958;48.150;11.506;2023-05-27T12:38:31;7.88;;;4.22;;
9838;SDS011;4958;48.150;11.506;2023-05-27T12:40:59;5.20;;;4.15;;
9838;SDS011;4958;48.150;11.506;2023-05-27T12:43:26;6.93;;;4.20;;
9838;SDS011;4958;48.150;11.506;2023-05-27T12:45:52;6.03;;;4.22;;
9838;SDS011;4958;48.150;11.506;2023-05-27T12:48:29;6.72;;;4.22;;
9838;SDS011;4958;48.150;11.506;2023-05-27T12:50:56;4.68;;;3.72;;
9838;SDS011;4958;48.150;11.506;2023-05-27T12:53:22;8.77;;;4.32;;
9838;SDS011;4958;48.150;11.506;2023-05-27T12:55:49;5.18;;;4.00;;
9838;SDS011;4958;48.150;11.506;2023-05-27T12:58:17;5.00;;;4.10;;
9838;SDS011;4958;48.150;11.506;2023-05-27T13:00:43;5.85;;;4.65;;
9838;SDS011;4958;48.150;11.506;2023-05-27T13:03:10;4.68;;;3.90;;
9838;SDS011;4958;48.150;11.506;2023-05-27T13:05:36;6.32;;;4.40;;
9838;SDS011;4958;48.150;11.506;2023-05-27T13:08:03;5.28;;;4.03;;
9838;SDS011;4958;48.150;11.506;2023-05-27T13:10:30;4.65;;;4.13;;
9838;SDS011;4958;48.150;11.506;2023-05-27T13:12:57;6.03;;;3.95;;
9838;SDS011;4958;48.150;11.506;2023-05-27T13:15:27;5.60;;;4.40;;
9838;SDS011;4958;48.150;11.506;2023-05-27T13:17:54;7.30;;;4.47;;
9838;SDS011;4958;48.150;11.506;2023-05-27T13:20:21;4.82;;;3.90;;
9838;SDS011;4958;48.150;11.506;2023-05-27T13:22:49;7.43;;;3.83;;
9838;SDS011;4958;48.150;11.506;2023-05-27T13:25:18;9.20;;;4.13;;
9838;SDS011;4958;48.150;11.506;2023-05-27T13:27:44;6.80;;;4.05;;
9838;SDS011;4958;48.150;11.506;2023-05-27T13:30:11;7.32;;;4.05;;
9838;SDS011;4958;48.150;11.506;2023-05-27T13:32:41;7.45;;;3.88;;
9838;SDS011;4958;48.150;11.506;2023-05-27T13:35:08;6.45;;;3.83;;
9838;SDS011;4958;48.150;11.506;2023-05-27T13:37:35;6.25;;;4.00;;
9838;SDS011;4958;48.150;11.506;2023-05-27T13:40:02;5.32;;;3.83;;
9838;SDS011;4958;48.150;11.506;2023-05-27T13:42:29;7.55;;;4.13;;
9838;SDS011;4958;48.150;11.506;2023-05-27T13:44:56;5.20;;;4.07;;
9838;SDS011;4958;48.150;11.506;2023-05-27T13:47:22;7.53;;;3.95;;
9838;SDS011;4958;48.150;11.506;2023-05-27T13:49:50;5.95;;;4.38;;
9838;SDS011;4958;48.150;11.506;2023-05-27T13:52:17;6.80;;;4.40;;
9838;SDS011;4958;48.150;11.506;2023-05-27T13:54:43;5.00;;;4.35;;
9838;SDS011;4958;48.150;11.506;2023-05-27T13:57:10;5.68;;;4.13;;
9838;SDS011;4958;48.150;11.506;2023-05-27T13:59:37;7.22;;;4.18;;
9838;SDS011;4958;48.150;11.506;2023-05-27T14:02:03;4.45;;;3.78;;
9838;SDS011;4958;48.150;11.506;2023-05-27T14:04:31;7.07;;;4.53;;
9838;SDS011;4958;48.150;11.506;2023-05-27T14:06:59;5.97;;;3.92;;
9838;SDS011;4958;48.150;11.506;2023-05-27T14:09:25;5.32;;;3.92;;
9838;SDS011;4958;48.150;11.506;2023-05-27T14:11:52;6.00;;;3.92;;
9838;SDS011;4958;48.150;11.506;2023-05-27T14:14:20;5.15;;;3.85;;
9838;SDS011;4958;48.150;11.506;2023-05-27T14:16:46;7.15;;;3.90;;
9838;SDS011;4958;48.150;11.506;2023-05-27T14:19:13;5.88;;;4.22;;
9838;SDS011;4958;48.150;11.506;2023-05-27T14:21:39;6.38;;;3.95;;
9838;SDS011;4958;48.150;11.506;2023-05-27T14:24:07;7.32;;;4.22;;
9838;SDS011;4958;48.150;11.506;2023-05-27T14:26:36;5.38;;;3.90;;
9838;SDS011;4958;48.150;11.506;2023-05-27T14:29:06;6.25;;;4.35;;
9838;SDS011;4958;48.150;11.506;2023-05-27T14:31:33;7.90;;;4.00;;
9838;SDS011;4958;48.150;11.506;2023-05-27T14:33:59;4.63;;;3.65;;
9838;SDS011;4958;48.150;11.506;2023-05-27T14:36:26;5.95;;;4.07;;
9838;SDS011;4958;48.150;11.506;2023-05-27T14:38:53;5.70;;;4.05;;
9838;SDS011;4958;48.150;11.506;2023-05-27T14:41:20;5.70;;;3.95;;
9838;SDS011;4958;48.150;11.506;2023-05-27T14:43:47;5.88;;;4.05;;
9838;SDS011;4958;48.150;11.506;2023-05-27T14:46:18;6.57;;;4.15;;
9838;SDS011;4958;48.150;11.506;2023-05-27T14:48:46;5.10;;;3.80;;
9838;SDS011;4958;48.150;11.506;2023-05-27T14:51:16;4.28;;;3.50;;
9838;SDS011;4958;48.150;11.506;2023-05-27T14:53:43;5.20;;;4.35;;
9838;SDS011;4958;48.150;11.506;2023-05-27T14:56:09;6.32;;;4.20;;
9838;SDS011;4958;48.150;11.506;2023-05-27T14:58:38;5.35;;;3.75;;
9838;SDS011;4958;48.150;11.506;2023-05-27T15:01:07;7.45;;;3.80;;
9838;SDS011;4958;48.150;11.506;2023-05-27T15:03:35;6.20;;;3.83;;
9838;SDS011;4958;48.150;11.506;2023-05-27T15:06:02;6.90;;;3.70;;
9838;SDS011;4958;48.150;11.506;2023-05-27T15:08:28;7.97;;;3.78;;
9838;SDS011;4958;48.150;11.506;2023-05-27T15:10:55;6.30;;;3.80;;
9838;SDS011;4958;48.150;11.506;2023-05-27T15:13:23;6.05;;;4.43;;
9838;SDS011;4958;48.150;11.506;2023-05-27T15:15:54;6.38;;;4.03;;
9838;SDS011;4958;48.150;11.506;2023-05-27T15:18:20;6.82;;;4.15;;
9838;SDS011;4958;48.150;11.506;2023-05-27T15:20:46;4.78;;;3.55;;
9838;SDS011;4958;48.150;11.506;2023-05-27T15:23:13;6.13;;;3.75;;
9838;SDS011;4958;48.150;11.506;2023-05-27T15:25:40;7.65;;;3.88;;
9838;SDS011;4958;48.150;11.506;2023-05-27T15:28:07;5.38;;;3.25;;
9838;SDS011;4958;48.150;11.506;2023-05-27T15:30:38;4.90;;;3.38;;